sensor_id;sensor_type;location;lat;lon;timestamp;P1;durP1;ratioP1;P2;durP2;ratioP2
65420;SDS011;52028;50.658;14.004;2022-08-21T00:02:17;30.13;;;16.50;;
65420;SDS011;52028;50.658;14.004;2022-08-21T00:04:44;25.85;;;16.27;;
65420;SDS011;52028;50.658;14.004;2022-08-21T00:07:10;25.65;;;16.13;;
65420;SDS011;52028;50.658;14.004;2022-08-21T00:09:35;28.30;;;17.70;;
65420;SDS011;52028;50.658;14.004;2022-08-21T00:12:01;35.25;;;19.23;;
65420;SDS011;52028;50.658;14.004;2022-08-21T00:14:27;36.75;;;20.83;;
65420;SDS011;52028;50.658;14.004;2022-08-21T00:16:53;32.80;;;20.50;;
65420;SDS011;52028;50.658;14.004;2022-08-21T00:19:18;33.15;;;19.13;;
65420;SDS011;52028;50.658;14.004;2022-08-21T00:21:43;32.72;;;19.38;;
65420;SDS011;52028;50.658;14.004;2022-08-21T00:24:09;29.05;;;18.50;;
65420;SDS011;52028;50.658;14.004;2022-08-21T00:26:35;31.58;;;18.25;;
65420;SDS011;52028;50.658;14.004;2022-08-21T00:29:00;26.00;;;17.08;;
65420;SDS011;52028;50.658;14.004;2022-08-21T00:31:25;30.67;;;16.83;;
65420;SDS011;52028;50.658;14.004;2022-08-21T00:33:51;25.20;;;16.33;;
65420;SDS011;52028;50.658;14.004;2022-08-21T00:36:16;27.70;;;16.17;;
65420;SDS011;52028;50.658;14.004;2022-08-21T00:38:42;23.58;;;14.68;;
65420;SDS011;52028;50.658;14.004;2022-08-21T00:41:08;28.02;;;16.85;;
65420;SDS011;52028;50.658;14.004;2022-08-21T00:43:36;25.02;;;15.23;;
65420;SDS011;52028;50.658;14.004;2022-08-21T00:46:02;26.27;;;15.00;;
65420;SDS011;52028;50.658;14.004;2022-08-21T00:48:29;26.48;;;15.35;;
65420;SDS011;52028;50.658;14.004;2022-08-21T00:51:11;27.13;;;15.40;;
65420;SDS011;52028;50.658;14.004;2022-08-21T00:53:42;28.10;;;16.10;;
65420;SDS011;52028;50.658;14.004;2022-08-21T00:58:36;27.55;;;15.73;;
65420;SDS011;52028;50.658;14.004;2022-08-21T01:01:05;29.27;;;17.67;;
65420;SDS011;52028;50.658;14.004;2022-08-21T01:03:32;25.58;;;15.63;;
65420;SDS011;52028;50.658;14.004;2022-08-21T01:05:58;25.05;;;15.45;;
65420;SDS011;52028;50.658;14.004;2022-08-21T01:08:24;28.52;;;17.13;;
65420;SDS011;52028;50.658;14.004;2022-08-21T01:10:50;29.77;;;17.25;;
65420;SDS011;52028;50.658;14.004;2022-08-21T01:13:18;26.73;;;16.92;;
65420;SDS011;52028;50.658;14.004;2022-08-21T01:15:48;31.00;;;16.65;;
65420;SDS011;52028;50.658;14.004;2022-08-21T01:18:17;27.40;;;16.77;;
65420;SDS011;52028;50.658;14.004;2022-08-21T01:20:45;29.60;;;16.08;;
65420;SDS011;52028;50.658;14.004;2022-08-21T01:23:31;30.52;;;17.88;;
65420;SDS011;52028;50.658;14.004;2022-08-21T01:25:56;42.85;;;27.38;;
65420;SDS011;52028;50.658;14.004;2022-08-21T01:28:22;36.97;;;22.20;;
65420;SDS011;52028;50.658;14.004;2022-08-21T01:30:47;31.85;;;19.88;;
65420;SDS011;52028;50.658;14.004;2022-08-21T01:33:15;33.47;;;19.00;;
65420;SDS011;52028;50.658;14.004;2022-08-21T01:35:43;31.77;;;18.75;;
65420;SDS011;52028;50.658;14.004;2022-08-21T01:38:08;28.75;;;18.08;;
65420;SDS011;52028;50.658;14.004;2022-08-21T01:40:34;32.13;;;18.70;;
65420;SDS011;52028;50.658;14.004;2022-08-21T01:42:59;32.15;;;18.08;;
65420;SDS011;52028;50.658;14.004;2022-08-21T01:45:25;31.70;;;18.42;;
65420;SDS011;52028;50.658;14.004;2022-08-21T01:47:51;30.02;;;18.27;;
65420;SDS011;52028;50.658;14.004;2022-08-21T01:50:18;32.67;;;17.83;;
65420;SDS011;52028;50.658;14.004;2022-08-21T01:52:45;30.15;;;17.60;;
65420;SDS011;52028;50.658;14.004;2022-08-21T01:55:11;30.75;;;18.23;;
65420;SDS011;52028;50.658;14.004;2022-08-21T01:57:37;28.10;;;17.10;;
65420;SDS011;52028;50.658;14.004;2022-08-21T02:00:07;29.02;;;17.67;;
65420;SDS011;52028;50.658;14.004;2022-08-21T02:02:35;28.02;;;16.33;;
65420;SDS011;52028;50.658;14.004;2022-08-21T02:05:01;27.88;;;17.13;;
65420;SDS011;52028;50.658;14.004;2022-08-21T02:07:34;27.10;;;16.48;;
65420;SDS011;52028;50.658;14.004;2022-08-21T02:10:05;33.05;;;18.67;;
65420;SDS011;52028;50.658;14.004;2022-08-21T02:12:32;33.42;;;17.73;;
65420;SDS011;52028;50.658;14.004;2022-08-21T02:14:57;28.83;;;17.20;;
65420;SDS011;52028;50.658;14.004;2022-08-21T02:17:23;26.80;;;16.85;;
65420;SDS011;52028;50.658;14.004;2022-08-21T02:19:48;25.38;;;15.63;;
65420;SDS011;52028;50.658;14.004;2022-08-21T02:22:14;26.98;;;16.35;;
65420;SDS011;52028;50.658;14.004;2022-08-21T02:24:39;29.55;;;17.42;;
65420;SDS011;52028;50.658;14.004;2022-08-21T02:27:05;29.70;;;17.65;;
65420;SDS011;52028;50.658;14.004;2022-08-21T02:29:30;24.60;;;15.07;;
65420;SDS011;52028;50.658;14.004;2022-08-21T02:31:55;27.23;;;16.20;;
65420;SDS011;52028;50.658;14.004;2022-08-21T02:34:21;27.08;;;15.85;;
65420;SDS011;52028;50.658;14.004;2022-08-21T02:36:46;25.08;;;15.77;;
65420;SDS011;52028;50.658;14.004;2022-08-21T02:39:12;27.70;;;16.90;;
65420;SDS011;52028;50.658;14.004;2022-08-21T02:41:37;28.15;;;16.05;;
65420;SDS011;52028;50.658;14.004;2022-08-21T02:44:02;34.25;;;22.52;;
65420;SDS011;52028;50.658;14.004;2022-08-21T02:46:28;28.48;;;18.65;;
65420;SDS011;52028;50.658;14.004;2022-08-21T02:48:53;27.23;;;17.33;;
65420;SDS011;52028;50.658;14.004;2022-08-21T02:51:19;27.58;;;17.88;;
65420;SDS011;52028;50.658;14.004;2022-08-21T02:53:45;29.83;;;17.77;;
65420;SDS011;52028;50.658;14.004;2022-08-21T02:56:13;30.48;;;17.80;;
65420;SDS011;52028;50.658;14.004;2022-08-21T02:58:41;30.25;;;17.27;;
65420;SDS011;52028;50.658;14.004;2022-08-21T03:01:11;32.58;;;17.75;;
65420;SDS011;52028;50.658;14.004;2022-08-21T03:03:38;33.28;;;18.58;;
65420;SDS011;52028;50.658;14.004;2022-08-21T03:06:06;29.83;;;18.30;;
65420;SDS011;52028;50.658;14.004;2022-08-21T03:08:33;31.63;;;18.40;;
65420;SDS011;52028;50.658;14.004;2022-08-21T03:10:59;34.80;;;19.27;;
65420;SDS011;52028;50.658;14.004;2022-08-21T03:13:25;35.35;;;19.48;;
65420;SDS011;52028;50.658;14.004;2022-08-21T03:15:51;38.97;;;21.02;;
65420;SDS011;52028;50.658;14.004;2022-08-21T03:18:17;35.55;;;20.05;;
65420;SDS011;52028;50.658;14.004;2022-08-21T03:20:43;33.30;;;18.95;;
65420;SDS011;52028;50.658;14.004;2022-08-21T03:23:10;29.85;;;17.27;;
65420;SDS011;52028;50.658;14.004;2022-08-21T03:25:37;30.30;;;18.10;;
65420;SDS011;52028;50.658;14.004;2022-08-21T03:28:04;27.40;;;17.13;;
65420;SDS011;52028;50.658;14.004;2022-08-21T03:30:31;26.08;;;15.95;;
65420;SDS011;52028;50.658;14.004;2022-08-21T03:32:57;20.45;;;12.85;;
65420;SDS011;52028;50.658;14.004;2022-08-21T03:35:24;22.38;;;13.40;;
65420;SDS011;52028;50.658;14.004;2022-08-21T03:37:50;17.30;;;10.77;;
65420;SDS011;52028;50.658;14.004;2022-08-21T03:40:16;17.63;;;10.50;;
65420;SDS011;52028;50.658;14.004;2022-08-21T03:42:42;14.45;;;9.52;;
65420;SDS011;52028;50.658;14.004;2022-08-21T03:45:12;11.20;;;7.65;;
65420;SDS011;52028;50.658;14.004;2022-08-21T03:47:38;10.55;;;7.05;;
65420;SDS011;52028;50.658;14.004;2022-08-21T03:50:04;9.82;;;5.53;;
65420;SDS011;52028;50.658;14.004;2022-08-21T03:52:30;5.95;;;4.22;;
65420;SDS011;52028;50.658;14.004;2022-08-21T03:54:55;6.82;;;4.15;;
65420;SDS011;52028;50.658;14.004;2022-08-21T03:57:21;6.18;;;4.10;;
65420;SDS011;52028;50.658;14.004;2022-08-21T03:59:46;4.85;;;3.60;;
65420;SDS011;52028;50.658;14.004;2022-08-21T04:02:12;4.75;;;3.58;;
65420;SDS011;52028;50.658;14.004;2022-08-21T04:04:41;4.60;;;3.30;;
65420;SDS011;52028;50.658;14.004;2022-08-21T04:07:06;6.20;;;3.90;;
65420;SDS011;52028;50.658;14.004;2022-08-21T04:09:31;5.43;;;4.05;;
65420;SDS011;52028;50.658;14.004;2022-08-21T04:11:57;4.88;;;3.45;;
65420;SDS011;52028;50.658;14.004;2022-08-21T04:14:24;5.10;;;3.90;;
65420;SDS011;52028;50.658;14.004;2022-08-21T04:16:49;5.93;;;3.95;;
65420;SDS011;52028;50.658;14.004;2022-08-21T04:19:15;5.28;;;3.50;;
65420;SDS011;52028;50.658;14.004;2022-08-21T04:21:40;4.40;;;3.15;;
65420;SDS011;52028;50.658;14.004;2022-08-21T04:24:07;5.15;;;4.00;;
65420;SDS011;52028;50.658;14.004;2022-08-21T04:26:34;4.55;;;3.60;;
65420;SDS011;52028;50.658;14.004;2022-08-21T04:29:01;4.13;;;2.70;;
65420;SDS011;52028;50.658;14.004;2022-08-21T04:31:27;5.68;;;3.22;;
65420;SDS011;52028;50.658;14.004;2022-08-21T04:33:53;5.65;;;3.67;;
65420;SDS011;52028;50.658;14.004;2022-08-21T04:36:19;5.28;;;3.50;;
65420;SDS011;52028;50.658;14.004;2022-08-21T04:38:44;5.15;;;3.50;;
65420;SDS011;52028;50.658;14.004;2022-08-21T04:41:09;6.07;;;3.70;;
65420;SDS011;52028;50.658;14.004;2022-08-21T04:43:35;6.78;;;3.42;;
65420;SDS011;52028;50.658;14.004;2022-08-21T04:46:00;4.28;;;3.00;;
65420;SDS011;52028;50.658;14.004;2022-08-21T04:48:26;4.57;;;3.50;;
65420;SDS011;52028;50.658;14.004;2022-08-21T04:50:54;5.25;;;3.70;;
65420;SDS011;52028;50.658;14.004;2022-08-21T04:55:50;5.32;;;3.50;;
65420;SDS011;52028;50.658;14.004;2022-08-21T04:58:18;4.82;;;3.40;;
65420;SDS011;52028;50.658;14.004;2022-08-21T05:00:49;7.20;;;3.60;;
65420;SDS011;52028;50.658;14.004;2022-08-21T05:03:18;6.10;;;3.10;;
65420;SDS011;52028;50.658;14.004;2022-08-21T05:05:43;5.07;;;3.60;;
65420;SDS011;52028;50.658;14.004;2022-08-21T05:08:09;6.22;;;3.60;;
65420;SDS011;52028;50.658;14.004;2022-08-21T05:10:39;7.32;;;3.60;;
65420;SDS011;52028;50.658;14.004;2022-08-21T05:13:05;6.53;;;3.75;;
65420;SDS011;52028;50.658;14.004;2022-08-21T05:15:31;5.68;;;4.18;;
65420;SDS011;52028;50.658;14.004;2022-08-21T05:17:57;7.05;;;4.53;;
65420;SDS011;52028;50.658;14.004;2022-08-21T05:20:23;7.35;;;4.70;;
65420;SDS011;52028;50.658;14.004;2022-08-21T05:22:48;7.90;;;5.00;;
65420;SDS011;52028;50.658;14.004;2022-08-21T05:25:13;7.95;;;5.40;;
65420;SDS011;52028;50.658;14.004;2022-08-21T05:27:39;7.70;;;5.60;;
65420;SDS011;52028;50.658;14.004;2022-08-21T05:30:06;10.73;;;5.30;;
65420;SDS011;52028;50.658;14.004;2022-08-21T05:32:32;10.10;;;5.93;;
65420;SDS011;52028;50.658;14.004;2022-08-21T05:34:59;8.50;;;5.50;;
65420;SDS011;52028;50.658;14.004;2022-08-21T05:37:26;8.35;;;5.55;;
65420;SDS011;52028;50.658;14.004;2022-08-21T05:39:51;7.45;;;5.43;;
65420;SDS011;52028;50.658;14.004;2022-08-21T05:42:16;6.38;;;4.32;;
65420;SDS011;52028;50.658;14.004;2022-08-21T05:44:42;6.30;;;4.03;;
65420;SDS011;52028;50.658;14.004;2022-08-21T05:47:09;7.30;;;4.65;;
65420;SDS011;52028;50.658;14.004;2022-08-21T05:49:35;7.97;;;4.90;;
65420;SDS011;52028;50.658;14.004;2022-08-21T05:52:01;7.30;;;5.22;;
65420;SDS011;52028;50.658;14.004;2022-08-21T05:54:27;7.07;;;4.60;;
65420;SDS011;52028;50.658;14.004;2022-08-21T05:56:53;6.75;;;5.03;;
65420;SDS011;52028;50.658;14.004;2022-08-21T05:59:18;7.15;;;5.25;;
65420;SDS011;52028;50.658;14.004;2022-08-21T06:01:44;20.17;;;14.90;;
65420;SDS011;52028;50.658;14.004;2022-08-21T06:04:10;10.73;;;7.85;;
65420;SDS011;52028;50.658;14.004;2022-08-21T06:06:36;15.35;;;9.95;;
65420;SDS011;52028;50.658;14.004;2022-08-21T06:09:02;13.43;;;8.98;;
65420;SDS011;52028;50.658;14.004;2022-08-21T06:11:29;7.60;;;5.43;;
65420;SDS011;52028;50.658;14.004;2022-08-21T06:13:54;6.43;;;4.32;;
65420;SDS011;52028;50.658;14.004;2022-08-21T06:16:19;6.28;;;4.43;;
65420;SDS011;52028;50.658;14.004;2022-08-21T06:18:45;7.63;;;4.88;;
65420;SDS011;52028;50.658;14.004;2022-08-21T06:21:10;7.97;;;4.35;;
65420;SDS011;52028;50.658;14.004;2022-08-21T06:23:37;7.85;;;4.07;;
65420;SDS011;52028;50.658;14.004;2022-08-21T06:26:03;7.75;;;3.80;;
65420;SDS011;52028;50.658;14.004;2022-08-21T06:28:29;7.93;;;4.60;;
65420;SDS011;52028;50.658;14.004;2022-08-21T06:30:55;6.55;;;4.32;;
65420;SDS011;52028;50.658;14.004;2022-08-21T06:33:21;8.13;;;4.10;;
65420;SDS011;52028;50.658;14.004;2022-08-21T06:35:46;8.18;;;4.55;;
65420;SDS011;52028;50.658;14.004;2022-08-21T06:38:12;7.40;;;3.78;;
65420;SDS011;52028;50.658;14.004;2022-08-21T06:40:38;8.20;;;4.68;;
65420;SDS011;52028;50.658;14.004;2022-08-21T06:43:11;6.53;;;4.18;;
65420;SDS011;52028;50.658;14.004;2022-08-21T06:45:37;5.88;;;4.30;;
65420;SDS011;52028;50.658;14.004;2022-08-21T06:48:03;7.20;;;4.30;;
65420;SDS011;52028;50.658;14.004;2022-08-21T06:50:29;10.75;;;4.55;;
65420;SDS011;52028;50.658;14.004;2022-08-21T06:52:59;9.63;;;4.80;;
65420;SDS011;52028;50.658;14.004;2022-08-21T06:55:26;6.68;;;4.50;;
65420;SDS011;52028;50.658;14.004;2022-08-21T06:57:52;5.38;;;4.22;;
65420;SDS011;52028;50.658;14.004;2022-08-21T07:00:17;8.15;;;5.10;;
65420;SDS011;52028;50.658;14.004;2022-08-21T07:02:43;8.98;;;5.40;;
65420;SDS011;52028;50.658;14.004;2022-08-21T07:05:09;6.78;;;5.07;;
65420;SDS011;52028;50.658;14.004;2022-08-21T07:07:34;9.27;;;6.82;;
65420;SDS011;52028;50.658;14.004;2022-08-21T07:09:59;8.10;;;5.25;;
65420;SDS011;52028;50.658;14.004;2022-08-21T07:12:25;7.22;;;4.35;;
65420;SDS011;52028;50.658;14.004;2022-08-21T07:14:51;7.55;;;4.40;;
65420;SDS011;52028;50.658;14.004;2022-08-21T07:17:17;6.03;;;4.60;;
65420;SDS011;52028;50.658;14.004;2022-08-21T07:19:42;6.63;;;5.03;;
65420;SDS011;52028;50.658;14.004;2022-08-21T07:22:07;6.35;;;4.70;;
65420;SDS011;52028;50.658;14.004;2022-08-21T07:24:33;8.25;;;4.57;;
65420;SDS011;52028;50.658;14.004;2022-08-21T07:26:58;6.07;;;4.07;;
65420;SDS011;52028;50.658;14.004;2022-08-21T07:29:23;5.78;;;3.80;;
65420;SDS011;52028;50.658;14.004;2022-08-21T07:31:49;6.15;;;3.75;;
65420;SDS011;52028;50.658;14.004;2022-08-21T07:34:14;6.80;;;4.07;;
65420;SDS011;52028;50.658;14.004;2022-08-21T07:36:40;5.80;;;4.30;;
65420;SDS011;52028;50.658;14.004;2022-08-21T07:39:05;6.93;;;5.00;;
65420;SDS011;52028;50.658;14.004;2022-08-21T07:41:30;6.15;;;4.18;;
65420;SDS011;52028;50.658;14.004;2022-08-21T07:43:57;5.72;;;4.00;;
65420;SDS011;52028;50.658;14.004;2022-08-21T07:46:23;5.97;;;4.70;;
65420;SDS011;52028;50.658;14.004;2022-08-21T07:48:49;6.07;;;4.13;;
65420;SDS011;52028;50.658;14.004;2022-08-21T07:51:15;6.35;;;4.53;;
65420;SDS011;52028;50.658;14.004;2022-08-21T07:53:41;6.80;;;4.63;;
65420;SDS011;52028;50.658;14.004;2022-08-21T07:56:12;6.97;;;4.55;;
65420;SDS011;52028;50.658;14.004;2022-08-21T07:58:37;7.93;;;4.68;;
65420;SDS011;52028;50.658;14.004;2022-08-21T08:01:03;7.72;;;4.80;;
65420;SDS011;52028;50.658;14.004;2022-08-21T08:03:30;8.60;;;4.90;;
65420;SDS011;52028;50.658;14.004;2022-08-21T08:05:56;7.15;;;4.35;;
65420;SDS011;52028;50.658;14.004;2022-08-21T08:08:21;8.98;;;4.70;;
65420;SDS011;52028;50.658;14.004;2022-08-21T08:10:46;7.55;;;5.18;;
65420;SDS011;52028;50.658;14.004;2022-08-21T08:13:14;8.57;;;5.97;;
65420;SDS011;52028;50.658;14.004;2022-08-21T08:15:39;8.25;;;5.22;;
65420;SDS011;52028;50.658;14.004;2022-08-21T08:18:05;8.18;;;4.97;;
65420;SDS011;52028;50.658;14.004;2022-08-21T08:20:30;12.13;;;5.07;;
65420;SDS011;52028;50.658;14.004;2022-08-21T08:22:56;7.38;;;4.80;;
65420;SDS011;52028;50.658;14.004;2022-08-21T08:25:22;7.35;;;4.75;;
65420;SDS011;52028;50.658;14.004;2022-08-21T08:27:48;11.45;;;6.25;;
65420;SDS011;52028;50.658;14.004;2022-08-21T08:30:14;11.82;;;6.82;;
65420;SDS011;52028;50.658;14.004;2022-08-21T08:32:41;8.77;;;5.85;;
65420;SDS011;52028;50.658;14.004;2022-08-21T08:35:07;8.80;;;5.80;;
65420;SDS011;52028;50.658;14.004;2022-08-21T08:37:34;7.78;;;5.72;;
65420;SDS011;52028;50.658;14.004;2022-08-21T08:40:02;8.20;;;6.00;;
65420;SDS011;52028;50.658;14.004;2022-08-21T08:42:30;9.23;;;5.57;;
65420;SDS011;52028;50.658;14.004;2022-08-21T08:45:11;7.68;;;5.07;;
65420;SDS011;52028;50.658;14.004;2022-08-21T08:48:26;7.40;;;5.07;;
65420;SDS011;52028;50.658;14.004;2022-08-21T08:50:45;7.97;;;5.20;;
65420;SDS011;52028;50.658;14.004;2022-08-21T08:53:23;8.40;;;5.60;;
65420;SDS011;52028;50.658;14.004;2022-08-21T08:55:56;8.57;;;5.05;;
65420;SDS011;52028;50.658;14.004;2022-08-21T08:58:24;8.70;;;5.13;;
65420;SDS011;52028;50.658;14.004;2022-08-21T09:00:53;6.97;;;5.00;;
65420;SDS011;52028;50.658;14.004;2022-08-21T09:03:20;7.88;;;4.85;;
65420;SDS011;52028;50.658;14.004;2022-08-21T09:11:52;8.93;;;5.20;;
65420;SDS011;52028;50.658;14.004;2022-08-21T09:27:33;10.20;;;5.28;;
65420;SDS011;52028;50.658;14.004;2022-08-21T09:29:59;8.80;;;5.82;;
65420;SDS011;52028;50.658;14.004;2022-08-21T09:32:26;7.07;;;5.47;;
65420;SDS011;52028;50.658;14.004;2022-08-21T09:37:22;8.40;;;5.10;;
65420;SDS011;52028;50.658;14.004;2022-08-21T09:39:48;9.73;;;5.70;;
65420;SDS011;52028;50.658;14.004;2022-08-21T09:42:20;10.30;;;6.90;;
65420;SDS011;52028;50.658;14.004;2022-08-21T09:45:13;13.63;;;9.80;;
65420;SDS011;52028;50.658;14.004;2022-08-21T09:47:41;13.30;;;6.78;;
65420;SDS011;52028;50.658;14.004;2022-08-21T09:50:19;10.48;;;6.40;;
65420;SDS011;52028;50.658;14.004;2022-08-21T09:52:50;13.15;;;6.50;;
65420;SDS011;52028;50.658;14.004;2022-08-21T09:58:29;11.82;;;6.45;;
65420;SDS011;52028;50.658;14.004;2022-08-21T10:00:58;12.82;;;6.57;;
65420;SDS011;52028;50.658;14.004;2022-08-21T10:03:25;8.43;;;5.90;;
65420;SDS011;52028;50.658;14.004;2022-08-21T10:08:22;9.85;;;5.68;;
65420;SDS011;52028;50.658;14.004;2022-08-21T10:10:54;9.07;;;6.00;;
65420;SDS011;52028;50.658;14.004;2022-08-21T10:16:10;6.53;;;4.90;;
65420;SDS011;52028;50.658;14.004;2022-08-21T10:19:29;9.93;;;4.82;;
65420;SDS011;52028;50.658;14.004;2022-08-21T10:24:32;6.70;;;4.18;;
65420;SDS011;52028;50.658;14.004;2022-08-21T10:27:06;9.98;;;3.92;;
65420;SDS011;52028;50.658;14.004;2022-08-21T10:34:50;5.82;;;3.70;;
65420;SDS011;52028;50.658;14.004;2022-08-21T10:37:31;4.70;;;3.47;;
65420;SDS011;52028;50.658;14.004;2022-08-21T10:51:16;9.10;;;4.20;;
65420;SDS011;52028;50.658;14.004;2022-08-21T10:56:24;7.10;;;3.95;;
65420;SDS011;52028;50.658;14.004;2022-08-21T11:04:20;9.13;;;4.05;;
65420;SDS011;52028;50.658;14.004;2022-08-21T11:06:52;7.05;;;3.95;;
65420;SDS011;52028;50.658;14.004;2022-08-21T11:09:22;7.22;;;3.97;;
65420;SDS011;52028;50.658;14.004;2022-08-21T11:17:00;6.13;;;3.88;;
65420;SDS011;52028;50.658;14.004;2022-08-21T11:19:40;9.20;;;4.10;;
65420;SDS011;52028;50.658;14.004;2022-08-21T11:22:14;7.55;;;3.97;;
65420;SDS011;52028;50.658;14.004;2022-08-21T11:25:00;9.13;;;4.50;;
65420;SDS011;52028;50.658;14.004;2022-08-21T11:30:02;8.90;;;3.95;;
65420;SDS011;52028;50.658;14.004;2022-08-21T11:34:57;7.55;;;3.63;;
65420;SDS011;52028;50.658;14.004;2022-08-21T11:46:19;8.10;;;3.97;;
65420;SDS011;52028;50.658;14.004;2022-08-21T11:51:33;6.80;;;3.65;;
65420;SDS011;52028;50.658;14.004;2022-08-21T11:56:37;6.70;;;3.15;;
65420;SDS011;52028;50.658;14.004;2022-08-21T11:59:11;7.28;;;3.28;;
65420;SDS011;52028;50.658;14.004;2022-08-21T12:01:43;5.95;;;2.88;;
65420;SDS011;52028;50.658;14.004;2022-08-21T12:04:17;6.90;;;2.75;;
65420;SDS011;52028;50.658;14.004;2022-08-21T12:06:47;5.80;;;2.92;;
65420;SDS011;52028;50.658;14.004;2022-08-21T12:11:50;8.23;;;2.85;;
65420;SDS011;52028;50.658;14.004;2022-08-21T12:14:34;6.18;;;2.67;;
65420;SDS011;52028;50.658;14.004;2022-08-21T12:17:05;6.25;;;2.88;;
65420;SDS011;52028;50.658;14.004;2022-08-21T12:19:32;7.20;;;3.10;;
65420;SDS011;52028;50.658;14.004;2022-08-21T12:26:55;6.37;;;2.70;;
65420;SDS011;52028;50.658;14.004;2022-08-21T12:31:59;5.43;;;2.90;;
65420;SDS011;52028;50.658;14.004;2022-08-21T12:34:31;8.18;;;2.83;;
65420;SDS011;52028;50.658;14.004;2022-08-21T12:37:02;10.13;;;3.15;;
65420;SDS011;52028;50.658;14.004;2022-08-21T12:39:31;6.28;;;2.60;;
65420;SDS011;52028;50.658;14.004;2022-08-21T12:42:00;6.03;;;2.63;;
65420;SDS011;52028;50.658;14.004;2022-08-21T12:44:51;9.10;;;2.90;;
65420;SDS011;52028;50.658;14.004;2022-08-21T12:47:21;5.63;;;2.70;;
65420;SDS011;52028;50.658;14.004;2022-08-21T12:50:03;4.40;;;2.60;;
65420;SDS011;52028;50.658;14.004;2022-08-21T12:54:58;6.90;;;2.58;;
65420;SDS011;52028;50.658;14.004;2022-08-21T12:57:25;7.97;;;3.22;;
65420;SDS011;52028;50.658;14.004;2022-08-21T12:59:54;6.05;;;2.65;;
65420;SDS011;52028;50.658;14.004;2022-08-21T13:02:23;5.75;;;2.92;;
65420;SDS011;52028;50.658;14.004;2022-08-21T13:04:53;5.38;;;2.47;;
65420;SDS011;52028;50.658;14.004;2022-08-21T13:07:24;6.95;;;2.90;;
65420;SDS011;52028;50.658;14.004;2022-08-21T13:09:53;5.35;;;2.40;;
65420;SDS011;52028;50.658;14.004;2022-08-21T13:12:23;5.70;;;2.17;;
65420;SDS011;52028;50.658;14.004;2022-08-21T13:14:50;5.70;;;2.40;;
65420;SDS011;52028;50.658;14.004;2022-08-21T13:17:18;7.10;;;2.90;;
65420;SDS011;52028;50.658;14.004;2022-08-21T13:19:58;5.10;;;2.22;;
65420;SDS011;52028;50.658;14.004;2022-08-21T13:22:26;7.10;;;2.55;;
65420;SDS011;52028;50.658;14.004;2022-08-21T13:24:53;5.80;;;2.47;;
65420;SDS011;52028;50.658;14.004;2022-08-21T13:27:29;6.05;;;2.45;;
65420;SDS011;52028;50.658;14.004;2022-08-21T13:32:36;6.57;;;2.60;;
65420;SDS011;52028;50.658;14.004;2022-08-21T13:35:09;4.18;;;1.92;;
65420;SDS011;52028;50.658;14.004;2022-08-21T13:37:38;8.25;;;2.85;;
65420;SDS011;52028;50.658;14.004;2022-08-21T13:40:06;8.82;;;2.42;;
65420;SDS011;52028;50.658;14.004;2022-08-21T13:42:34;7.60;;;2.50;;
65420;SDS011;52028;50.658;14.004;2022-08-21T13:44:59;6.00;;;2.13;;
65420;SDS011;52028;50.658;14.004;2022-08-21T13:47:25;6.85;;;2.10;;
65420;SDS011;52028;50.658;14.004;2022-08-21T13:49:51;9.10;;;2.05;;
65420;SDS011;52028;50.658;14.004;2022-08-21T13:52:22;6.78;;;2.05;;
65420;SDS011;52028;50.658;14.004;2022-08-21T13:54:55;6.63;;;2.65;;
65420;SDS011;52028;50.658;14.004;2022-08-21T13:57:26;6.60;;;2.15;;
65420;SDS011;52028;50.658;14.004;2022-08-21T14:00:09;4.95;;;2.50;;
65420;SDS011;52028;50.658;14.004;2022-08-21T14:02:50;6.60;;;2.33;;
65420;SDS011;52028;50.658;14.004;2022-08-21T14:05:22;5.35;;;2.33;;
65420;SDS011;52028;50.658;14.004;2022-08-21T14:07:57;5.05;;;2.03;;
65420;SDS011;52028;50.658;14.004;2022-08-21T14:10:41;4.85;;;2.25;;
65420;SDS011;52028;50.658;14.004;2022-08-21T14:13:26;7.25;;;2.45;;
65420;SDS011;52028;50.658;14.004;2022-08-21T14:15:59;3.97;;;2.13;;
65420;SDS011;52028;50.658;14.004;2022-08-21T14:18:26;5.07;;;2.42;;
65420;SDS011;52028;50.658;14.004;2022-08-21T14:21:03;10.00;;;3.05;;
65420;SDS011;52028;50.658;14.004;2022-08-21T14:23:30;4.18;;;2.38;;
65420;SDS011;52028;50.658;14.004;2022-08-21T14:25:58;4.50;;;2.10;;
65420;SDS011;52028;50.658;14.004;2022-08-21T14:30:59;9.45;;;3.35;;
65420;SDS011;52028;50.658;14.004;2022-08-21T14:33:40;7.25;;;2.30;;
65420;SDS011;52028;50.658;14.004;2022-08-21T14:36:06;4.00;;;2.60;;
65420;SDS011;52028;50.658;14.004;2022-08-21T14:38:31;6.72;;;2.30;;
65420;SDS011;52028;50.658;14.004;2022-08-21T14:41:44;5.10;;;2.38;;
65420;SDS011;52028;50.658;14.004;2022-08-21T14:43:53;4.93;;;2.60;;
65420;SDS011;52028;50.658;14.004;2022-08-21T14:46:21;5.53;;;2.63;;
65420;SDS011;52028;50.658;14.004;2022-08-21T14:48:50;6.07;;;2.58;;
65420;SDS011;52028;50.658;14.004;2022-08-21T14:51:15;5.68;;;2.65;;
65420;SDS011;52028;50.658;14.004;2022-08-21T14:53:41;4.03;;;2.40;;
65420;SDS011;52028;50.658;14.004;2022-08-21T14:56:07;5.90;;;2.22;;
65420;SDS011;52028;50.658;14.004;2022-08-21T14:58:34;5.78;;;2.50;;
65420;SDS011;52028;50.658;14.004;2022-08-21T15:01:03;5.15;;;2.58;;
65420;SDS011;52028;50.658;14.004;2022-08-21T15:03:31;5.55;;;2.60;;
65420;SDS011;52028;50.658;14.004;2022-08-21T15:05:57;5.38;;;2.70;;
65420;SDS011;52028;50.658;14.004;2022-08-21T15:08:23;7.30;;;2.50;;
65420;SDS011;52028;50.658;14.004;2022-08-21T15:10:48;5.13;;;2.42;;
65420;SDS011;52028;50.658;14.004;2022-08-21T15:13:14;5.57;;;2.35;;
65420;SDS011;52028;50.658;14.004;2022-08-21T15:15:44;9.23;;;2.42;;
65420;SDS011;52028;50.658;14.004;2022-08-21T15:18:10;3.85;;;1.92;;
65420;SDS011;52028;50.658;14.004;2022-08-21T15:20:36;6.53;;;2.85;;
65420;SDS011;52028;50.658;14.004;2022-08-21T15:23:03;9.60;;;2.63;;
65420;SDS011;52028;50.658;14.004;2022-08-21T15:25:30;5.95;;;2.60;;
65420;SDS011;52028;50.658;14.004;2022-08-21T15:27:56;8.30;;;2.40;;
65420;SDS011;52028;50.658;14.004;2022-08-21T15:30:21;4.15;;;2.15;;
65420;SDS011;52028;50.658;14.004;2022-08-21T15:32:47;7.20;;;3.15;;
65420;SDS011;52028;50.658;14.004;2022-08-21T15:35:13;9.20;;;2.30;;
65420;SDS011;52028;50.658;14.004;2022-08-21T15:37:38;4.43;;;2.00;;
65420;SDS011;52028;50.658;14.004;2022-08-21T15:40:04;4.28;;;2.22;;
65420;SDS011;52028;50.658;14.004;2022-08-21T15:42:32;7.40;;;2.20;;
65420;SDS011;52028;50.658;14.004;2022-08-21T15:44:57;6.40;;;2.15;;
65420;SDS011;52028;50.658;14.004;2022-08-21T15:47:30;10.45;;;2.55;;
65420;SDS011;52028;50.658;14.004;2022-08-21T15:49:58;4.65;;;2.03;;
65420;SDS011;52028;50.658;14.004;2022-08-21T15:52:23;4.25;;;2.22;;
65420;SDS011;52028;50.658;14.004;2022-08-21T15:54:49;5.95;;;2.40;;
65420;SDS011;52028;50.658;14.004;2022-08-21T15:57:16;5.63;;;2.05;;
65420;SDS011;52028;50.658;14.004;2022-08-21T15:59:45;3.65;;;2.08;;
65420;SDS011;52028;50.658;14.004;2022-08-21T16:02:15;6.75;;;2.78;;
65420;SDS011;52028;50.658;14.004;2022-08-21T16:04:43;5.53;;;1.98;;
65420;SDS011;52028;50.658;14.004;2022-08-21T16:07:09;4.88;;;2.55;;
65420;SDS011;52028;50.658;14.004;2022-08-21T16:09:36;5.75;;;2.47;;
65420;SDS011;52028;50.658;14.004;2022-08-21T16:12:01;4.32;;;1.90;;
65420;SDS011;52028;50.658;14.004;2022-08-21T16:14:29;6.85;;;2.03;;
65420;SDS011;52028;50.658;14.004;2022-08-21T16:16:55;5.57;;;2.17;;